Time;durP1;ratioP1;P1;durP2;ratioP2;P2;SDS_P1;SDS_P2;PMS_P1;PMS_P2;Temp;Humidity;BMP_temperature;BMP_pressure;BME280_temperature;BME280_humidity;BME280_pressure;Samples;Min_cycle;Max_cycle;Signal;HPM_P1;HPM_P2
2023/07/02 00:00:05;;;;;;;3.22;2.08;;;;;;;18.80;90.76;98863.16;340233;28;4504;-72
2023/07/02 00:00:17;;;;;;;2.60;1.80;;;;;;;18.86;90.40;98872.38;335598;28;18233;-74
2023/07/02 00:00:29;;;;;;;2.60;1.77;;;;;;;18.87;90.38;98864.31;338679;28;5626;-74
2023/07/02 00:00:41;;;;;;;2.53;1.85;;;;;;;18.74;90.75;98863.59;338001;28;17930;-72
2023/07/02 00:00:54;;;;;;;2.38;1.92;;;;;;;18.74;90.93;98859.16;339449;28;5474;-73
2023/07/02 00:01:06;;;;;;;2.20;2.00;;;;;;;18.76;90.98;98856.44;337280;28;18150;-72
2023/07/02 00:01:18;;;;;;;2.05;1.85;;;;;;;18.66;91.42;98864.22;339146;28;5523;-74
2023/07/02 00:01:31;;;;;;;1.85;1.65;;;;;;;18.62;91.65;98865.41;335060;28;18049;-73
2023/07/02 00:01:43;;;;;;;2.00;1.63;;;;;;;18.65;91.85;98859.91;338630;28;4505;-72
2023/07/02 00:01:55;;;;;;;2.17;1.83;;;;;;;18.68;91.41;98857.03;335754;28;18603;-73
2023/07/02 00:02:07;;;;;;;2.50;2.00;;;;;;;18.73;91.11;98856.66;338319;28;4636;-72
2023/07/02 00:02:20;;;;;;;2.70;2.03;;;;;;;18.65;91.24;98859.06;336013;28;17458;-74
2023/07/02 00:02:33;;;;;;;2.80;2.08;;;;;;;18.62;91.57;98862.78;339921;28;5209;-74
2023/07/02 00:02:45;;;;;;;3.60;1.90;;;;;;;18.67;91.64;98862.41;335260;28;17929;-73
2023/07/02 00:02:58;;;;;;;3.40;1.90;;;;;;;18.76;91.45;98866.97;338080;28;4656;-73
2023/07/02 00:03:11;;;;;;;2.30;1.90;;;;;;;18.82;91.07;98863.03;335641;28;17827;-73
2023/07/02 00:03:23;;;;;;;2.60;1.90;;;;;;;18.81;90.76;98858.72;339273;28;4819;-73
2023/07/02 00:03:38;;;;;;;2.75;1.90;;;;;;;18.86;90.65;98862.66;335980;28;18409;-72
2023/07/02 00:03:50;;;;;;;2.35;1.90;;;;;;;18.87;90.49;98858.22;335130;28;19515;-74
2023/07/02 00:04:02;;;;;;;2.80;2.10;;;;;;;18.88;90.42;98860.75;338352;28;5295;-74
2023/07/02 00:04:20;;;;;;;3.38;2.28;;;;;;;18.91;90.14;98862.28;336029;28;5617;-73
2023/07/02 00:04:32;;;;;;;3.20;2.30;;;;;;;18.94;90.01;98859.44;334471;28;17756;-73
2023/07/02 00:04:45;;;;;;;2.92;2.22;;;;;;;18.95;89.82;98861.09;335659;28;16454;-72
2023/07/02 00:04:57;;;;;;;3.95;2.03;;;;;;;18.96;89.76;98868.03;339810;28;4541;-73
2023/07/02 00:05:09;;;;;;;4.85;2.10;;;;;;;18.94;89.68;98862.88;337176;28;11602;-73
2023/07/02 00:05:21;;;;;;;4.30;1.92;;;;;;;18.94;89.62;98864.69;339589;28;5183;-73
2023/07/02 00:05:33;;;;;;;2.33;1.73;;;;;;;18.95;89.71;98861.09;339920;28;5059;-73
2023/07/02 00:05:45;;;;;;;2.22;1.60;;;;;;;18.90;89.62;98865.91;337206;28;18011;-74
2023/07/02 00:05:57;;;;;;;1.90;1.58;;;;;;;18.92;89.57;98869.25;339532;28;4485;-74
2023/07/02 00:06:09;;;;;;;2.08;1.75;;;;;;;18.92;89.42;98866.63;336953;28;11094;-73
2023/07/02 00:06:21;;;;;;;2.33;1.92;;;;;;;18.90;89.53;98865.91;339921;28;4533;-72
2023/07/02 00:06:40;;;;;;;2.38;2.03;;;;;;;18.92;89.55;98871.88;340031;28;4629;-74
2023/07/02 00:06:52;;;;;;;3.42;1.98;;;;;;;18.92;89.45;98863.97;337259;28;17338;-72
2023/07/02 00:07:04;;;;;;;3.47;2.03;;;;;;;18.90;89.58;98865.91;338376;28;4551;-74
2023/07/02 00:07:16;;;;;;;2.47;1.90;;;;;;;18.88;89.58;98865.19;335982;28;18887;-73
2023/07/02 00:07:28;;;;;;;2.40;1.92;;;;;;;18.88;89.70;98867.81;339734;28;5479;-73
2023/07/02 00:07:40;;;;;;;2.50;1.90;;;;;;;18.93;89.43;98873.53;337131;28;18040;-73
2023/07/02 00:07:52;;;;;;;3.97;2.10;;;;;;;18.98;89.35;98871.38;339903;28;5663;-73
2023/07/02 00:08:05;;;;;;;4.33;2.50;;;;;;;18.96;89.14;98862.78;337345;28;16141;-73
2023/07/02 00:08:17;;;;;;;4.13;2.50;;;;;;;18.96;89.14;98868.03;339158;28;5346;-73
2023/07/02 00:08:29;;;;;;;3.55;2.17;;;;;;;18.95;89.12;98866.34;339454;28;4536;-72
2023/07/02 00:08:41;;;;;;;3.05;1.95;;;;;;;18.90;89.15;98869.38;336928;28;18046;-73
2023/07/02 00:08:53;;;;;;;2.60;1.83;;;;;;;18.90;89.34;98863.25;340045;28;4655;-73
2023/07/02 00:09:05;;;;;;;2.60;1.80;;;;;;;18.89;89.47;98866.84;336846;28;16387;-73
2023/07/02 00:09:17;;;;;;;2.33;1.85;;;;;;;18.87;89.71;98869.59;339037;28;4550;-74
2023/07/02 00:09:29;;;;;;;2.50;2.00;;;;;;;18.81;89.94;98864.81;339424;28;8447;-73
2023/07/02 00:09:41;;;;;;;2.75;1.98;;;;;;;18.85;89.75;98866.25;337799;28;17999;-73
2023/07/02 00:09:54;;;;;;;2.60;1.90;;;;;;;18.79;89.95;98866.72;341428;28;4675;-73
2023/07/02 00:10:06;;;;;;;2.42;1.90;;;;;;;18.79;90.25;98863.25;337963;28;18103;-75
2023/07/02 00:10:18;;;;;;;3.50;2.17;;;;;;;18.86;90.05;98869.75;340942;28;4532;-75
2023/07/02 00:10:32;;;;;;;3.55;2.20;;;;;;;18.90;89.74;98865.91;337064;28;18023;-73
2023/07/02 00:10:44;;;;;;;2.75;2.20;;;;;;;18.85;89.81;98866.25;337998;28;10202;-74
2023/07/02 00:10:57;;;;;;;2.15;1.95;;;;;;;18.87;89.98;98868.75;336839;28;17249;-73
2023/07/02 00:11:12;;;;;;;2.42;2.00;;;;;;;18.84;90.17;98869.84;338544;28;5809;-72
2023/07/02 00:11:24;;;;;;;2.60;2.05;;;;;;;18.90;89.75;98863.25;339196;28;17202;-75
2023/07/02 00:11:38;;;;;;;2.45;1.90;;;;;;;18.90;89.43;98868.53;334541;28;18200;-74
2023/07/02 00:11:51;;;;;;;2.22;1.90;;;;;;;18.94;89.53;98869.97;335276;28;18553;-73
2023/07/02 00:12:03;;;;;;;2.15;1.95;;;;;;;18.98;89.19;98868.75;337524;28;5399;-73
2023/07/02 00:12:16;;;;;;;3.30;1.95;;;;;;;19.01;88.89;98873.75;333791;28;17865;-73
2023/07/02 00:12:28;;;;;;;3.50;2.00;;;;;;;19.04;88.72;98868.25;337931;28;4688;-73
2023/07/02 00:12:40;;;;;;;2.30;2.07;;;;;;;19.04;88.37;98870.91;336534;28;17904;-73
2023/07/02 00:12:52;;;;;;;2.28;2.00;;;;;;;19.06;88.14;98868.97;336975;28;5823;-72
2023/07/02 00:13:04;;;;;;;2.30;2.00;;;;;;;19.08;88.17;98866.22;339447;28;5792;-74
2023/07/02 00:13:17;;;;;;;2.47;1.90;;;;;;;19.08;88.15;98863.59;336742;28;18546;-74
2023/07/02 00:13:29;;;;;;;2.58;1.90;;;;;;;19.02;87.98;98861.44;334343;28;5395;-73
2023/07/02 00:13:41;;;;;;;3.25;2.13;;;;;;;19.01;88.19;98865.88;334494;28;19145;-73
2023/07/02 00:13:53;;;;;;;3.20;2.15;;;;;;;18.96;88.31;98868.03;339415;28;4664;-72
2023/07/02 00:14:06;;;;;;;3.35;2.08;;;;;;;18.95;88.14;98866.34;334875;28;16952;-73
2023/07/02 00:14:18;;;;;;;3.17;1.88;;;;;;;18.94;88.27;98860.25;339709;28;4590;-74
2023/07/02 00:14:30;;;;;;;3.08;1.90;;;;;;;18.93;88.30;98865.63;336714;28;12414;-75
2023/07/02 00:14:42;;;;;;;2.60;1.90;;;;;;;18.90;88.73;98863.25;339934;28;5391;-74
2023/07/02 00:14:54;;;;;;;2.58;1.90;;;;;;;18.92;88.56;98866.63;339281;28;11830;-74
2023/07/02 00:15:07;;;;;;;2.72;1.80;;;;;;;18.92;88.70;98866.63;337412;28;18017;-74
2023/07/02 00:15:19;;;;;;;6.05;2.10;;;;;;;18.93;88.62;98863.00;339163;28;5568;-74
2023/07/02 00:15:31;;;;;;;6.13;2.20;;;;;;;18.88;89.35;98865.19;336323;28;18457;-73
2023/07/02 00:15:43;;;;;;;2.97;2.10;;;;;;;18.87;89.35;98866.97;340083;28;4727;-73
2023/07/02 00:15:55;;;;;;;3.85;2.00;;;;;;;18.87;89.31;98872.22;337631;28;18346;-73
2023/07/02 00:16:07;;;;;;;3.88;2.00;;;;;;;18.92;89.21;98863.97;340397;28;4780;-73
2023/07/02 00:16:19;;;;;;;2.70;2.03;;;;;;;18.94;88.89;98867.31;338712;28;4758;-74
2023/07/02 00:16:31;;;;;;;2.70;2.05;;;;;;;18.96;88.88;98868.88;337286;28;17494;-73
2023/07/02 00:16:45;;;;;;;2.72;2.00;;;;;;;18.98;88.48;98868.75;339835;28;4513;-73
2023/07/02 00:16:59;;;;;;;2.30;1.92;;;;;;;19.01;88.61;98865.03;332244;28;17919;-73
2023/07/02 00:17:14;;;;;;;2.60;2.10;;;;;;;19.00;88.48;98864.19;331667;28;17914;-73
2023/07/02 00:17:26;;;;;;;2.72;2.10;;;;;;;19.03;88.21;98868.38;336114;28;17699;-73
2023/07/02 00:17:39;;;;;;;2.50;2.10;;;;;;;19.07;87.98;98865.38;337532;28;5275;-73
2023/07/02 00:17:52;;;;;;;2.47;2.08;;;;;;;19.06;87.81;98863.72;337414;28;18225;-73
2023/07/02 00:18:04;;;;;;;2.80;2.00;;;;;;;19.05;87.96;98866.47;339063;28;5234;-73
2023/07/02 00:18:16;;;;;;;2.90;2.00;;;;;;;19.02;88.11;98870.19;337604;28;18165;-74
2023/07/02 00:18:33;;;;;;;3.15;2.00;;;;;;;19.01;87.95;98865.88;338989;28;5307;-74
2023/07/02 00:18:52;;;;;;;2.78;2.00;;;;;;;19.05;87.86;98867.28;334337;28;17793;-73
2023/07/02 00:19:04;;;;;;;2.85;1.98;;;;;;;19.04;87.87;98865.63;336598;28;19404;-73
2023/07/02 00:19:17;;;;;;;3.75;2.03;;;;;;;19.01;87.91;98865.88;337004;28;18710;-75
2023/07/02 00:19:29;;;;;;;3.58;1.98;;;;;;;18.97;88.12;98872.34;338020;28;5459;-73
2023/07/02 00:19:41;;;;;;;3.08;1.90;;;;;;;18.96;88.19;98866.25;340009;28;17264;-73
2023/07/02 00:19:54;;;;;;;2.55;1.85;;;;;;;18.96;88.24;98868.03;339890;28;6101;-73
2023/07/02 00:20:08;;;;;;;2.60;1.80;;;;;;;18.99;88.03;98862.50;338289;28;18233;-73
2023/07/02 00:20:21;;;;;;;2.63;1.95;;;;;;;19.02;87.71;98870.19;335688;28;16552;-75
2023/07/02 00:20:37;;;;;;;2.70;2.00;;;;;;;19.06;87.64;98874.25;339489;28;4556;-74
2023/07/02 00:20:49;;;;;;;2.55;1.92;;;;;;;19.06;87.50;98868.97;339652;28;17487;-73
2023/07/02 00:21:02;;;;;;;2.38;1.90;;;;;;;19.09;87.34;98866.06;337195;28;16545;-73
2023/07/02 00:21:15;;;;;;;2.85;2.13;;;;;;;19.10;87.40;98873.03;339362;28;8917;-73
2023/07/02 00:21:28;;;;;;;2.67;2.22;;;;;;;19.11;87.27;98866.78;336305;28;17272;-74
2023/07/02 00:21:40;;;;;;;2.85;2.00;;;;;;;19.10;87.23;98872.22;336760;28;11158;-73
2023/07/02 00:21:55;;;;;;;2.50;1.90;;;;;;;19.10;87.28;98870.41;339929;28;4563;-73
2023/07/02 00:22:08;;;;;;;2.63;2.10;;;;;;;19.11;87.10;98877.31;335438;28;18467;-73
2023/07/02 00:22:21;;;;;;;2.58;2.20;;;;;;;19.15;87.01;98868.22;336072;28;17736;-73
2023/07/02 00:22:36;;;;;;;2.70;2.20;;;;;;;19.14;87.07;98866.56;339497;28;4698;-73
2023/07/02 00:22:49;;;;;;;3.08;2.10;;;;;;;19.11;86.98;98871.22;334402;28;16253;-74
2023/07/02 00:23:01;;;;;;;3.08;2.25;;;;;;;19.08;87.10;98871.50;336626;28;19070;-74
2023/07/02 00:23:13;;;;;;;3.50;2.40;;;;;;;19.08;87.03;98867.06;338165;28;4555;-74
2023/07/02 00:23:25;;;;;;;5.07;2.50;;;;;;;19.09;87.03;98873.97;336823;28;11877;-73
2023/07/02 00:23:37;;;;;;;6.22;2.40;;;;;;;19.08;87.03;98859.16;338241;28;4630;-73
2023/07/02 00:23:49;;;;;;;6.20;2.20;;;;;;;19.06;87.01;98866.34;339873;28;5095;-73
2023/07/02 00:24:01;;;;;;;3.53;1.98;;;;;;;19.05;86.98;98867.28;336413;28;17579;-74
2023/07/02 00:24:15;;;;;;;2.97;1.95;;;;;;;19.04;87.56;98864.81;339003;28;4671;-73
2023/07/02 00:24:29;;;;;;;2.50;2.08;;;;;;;19.03;87.51;98869.22;335591;28;17892;-73
2023/07/02 00:24:41;;;;;;;2.50;2.10;;;;;;;19.06;87.44;98868.16;336581;28;18188;-73
2023/07/02 00:24:55;;;;;;;4.15;2.10;;;;;;;19.06;87.22;98868.97;339028;28;4644;-73
2023/07/02 00:25:07;;;;;;;3.88;1.80;;;;;;;19.08;87.14;98877.59;335796;28;17637;-73
2023/07/02 00:25:20;;;;;;;2.20;1.90;;;;;;;19.09;87.16;98863.44;338521;28;11704;-73
2023/07/02 00:25:32;;;;;;;2.42;2.00;;;;;;;19.07;87.09;98873.28;334939;28;17590;-73
2023/07/02 00:25:44;;;;;;;2.72;2.00;;;;;;;19.09;87.08;98868.72;338684;28;4645;-73
2023/07/02 00:25:57;;;;;;;3.30;1.95;;;;;;;19.09;87.04;98866.06;337064;28;18082;-73
2023/07/02 00:26:09;;;;;;;2.97;1.90;;;;;;;19.09;87.09;98865.25;335940;28;5602;-74
2023/07/02 00:26:24;;;;;;;2.75;1.95;;;;;;;19.10;86.68;98866.94;336591;28;17969;-73
2023/07/02 00:26:37;;;;;;;2.90;2.00;;;;;;;19.11;86.83;98871.22;335817;28;18147;-73
2023/07/02 00:26:50;;;;;;;3.30;2.20;;;;;;;19.09;86.93;98868.72;336738;28;5560;-73
2023/07/02 00:27:02;;;;;;;3.45;2.30;;;;;;;19.03;87.19;98869.22;336543;28;17293;-74
2023/07/02 00:27:14;;;;;;;3.10;2.22;;;;;;;18.99;87.25;98864.31;338738;28;5068;-73
2023/07/02 00:27:26;;;;;;;3.25;2.20;;;;;;;18.95;87.39;98867.22;335114;28;18228;-73
2023/07/02 00:27:38;;;;;;;3.17;2.10;;;;;;;18.95;87.50;98869.00;338503;28;6392;-73
2023/07/02 00:27:50;;;;;;;3.10;2.05;;;;;;;18.98;87.46;98871.38;334727;28;18018;-73
2023/07/02 00:28:03;;;;;;;3.20;2.10;;;;;;;19.00;87.34;98864.19;337992;28;4487;-73
2023/07/02 00:28:17;;;;;;;2.78;1.98;;;;;;;19.02;87.15;98872.00;335762;28;16503;-73
2023/07/02 00:28:29;;;;;;;3.35;1.98;;;;;;;19.05;87.03;98867.28;338583;28;4621;-73
2023/07/02 00:28:41;;;;;;;2.80;1.83;;;;;;;19.07;86.98;98862.72;336509;28;18201;-73
2023/07/02 00:28:55;;;;;;;2.38;1.80;;;;;;;19.08;86.94;98877.59;340316;28;4658;-73
2023/07/02 00:29:09;;;;;;;2.55;2.00;;;;;;;19.08;86.57;98868.88;335673;28;18000;-73
2023/07/02 00:29:21;;;;;;;2.55;1.95;;;;;;;19.06;86.88;98865.50;336297;28;17857;-74
2023/07/02 00:29:33;;;;;;;2.03;1.80;;;;;;;18.94;87.06;98867.31;341514;28;5295;-72
2023/07/02 00:29:45;;;;;;;2.25;1.95;;;;;;;18.86;87.76;98867.09;335086;28;16902;-73
2023/07/02 00:29:57;;;;;;;3.10;2.05;;;;;;;18.88;87.75;98865.19;337635;28;5131;-72
2023/07/02 00:30:10;;;;;;;3.47;2.00;;;;;;;18.87;87.80;98868.75;341549;28;4704;-73
2023/07/02 00:30:22;;;;;;;2.97;2.10;;;;;;;18.88;87.82;98871.28;335935;28;15662;-73
2023/07/02 00:30:34;;;;;;;2.67;2.15;;;;;;;18.92;87.64;98871.88;339265;28;4686;-74
2023/07/02 00:30:46;;;;;;;3.75;2.30;;;;;;;18.91;87.53;98870.19;337070;28;18411;-73
2023/07/02 00:30:59;;;;;;;3.65;2.15;;;;;;;18.92;87.47;98866.63;339448;28;4553;-74
2023/07/02 00:31:11;;;;;;;3.67;2.10;;;;;;;18.95;87.40;98867.22;336793;28;18252;-72
2023/07/02 00:31:24;;;;;;;3.47;2.20;;;;;;;18.99;87.20;98867.78;339249;28;4656;-74
2023/07/02 00:31:36;;;;;;;3.35;2.20;;;;;;;19.00;87.11;98873.91;336486;28;17931;-74
2023/07/02 00:31:48;;;;;;;3.00;2.15;;;;;;;18.98;87.23;98867.94;339810;28;5038;-73
2023/07/02 00:32:00;;;;;;;2.75;2.20;;;;;;;18.98;87.27;98871.38;332089;28;16644;-75
2023/07/02 00:32:12;;;;;;;2.45;2.10;;;;;;;19.02;87.07;98866.72;338160;28;5616;-74
2023/07/02 00:32:24;;;;;;;3.25;2.10;;;;;;;19.03;86.85;98874.47;337786;28;5876;-73
2023/07/02 00:32:36;;;;;;;2.95;1.90;;;;;;;18.87;87.41;98874.03;335599;28;17937;-73
2023/07/02 00:32:48;;;;;;;2.83;2.00;;;;;;;18.89;87.55;98870.31;339833;28;5168;-73
2023/07/02 00:33:00;;;;;;;3.03;2.15;;;;;;;18.93;87.51;98863.00;336673;28;18895;-73
2023/07/02 00:33:13;;;;;;;3.88;2.10;;;;;;;18.96;87.47;98868.03;339956;28;4520;-73
2023/07/02 00:33:25;;;;;;;3.25;1.90;;;;;;;18.96;87.17;98865.41;339284;28;5274;-74
2023/07/02 00:33:37;;;;;;;3.17;2.00;;;;;;;18.94;87.27;98868.16;336424;28;18370;-73
2023/07/02 00:33:49;;;;;;;2.95;2.08;;;;;;;18.93;87.11;98871.75;339342;28;4744;-73
2023/07/02 00:34:02;;;;;;;3.00;2.08;;;;;;;18.95;87.13;98871.63;336278;28;17823;-73
2023/07/02 00:34:14;;;;;;;2.60;2.00;;;;;;;18.98;87.13;98871.38;337198;28;5540;-73
2023/07/02 00:34:26;;;;;;;2.65;2.00;;;;;;;18.98;87.16;98866.13;336157;28;18670;-74
2023/07/02 00:34:39;;;;;;;2.90;2.00;;;;;;;19.00;87.12;98874.75;341254;28;4820;-74
2023/07/02 00:34:51;;;;;;;2.50;1.90;;;;;;;19.05;87.04;98869.09;337324;28;11380;-73
2023/07/02 00:35:03;;;;;;;2.53;2.00;;;;;;;19.04;86.87;98868.25;339042;28;5207;-73
2023/07/02 00:35:16;;;;;;;2.78;2.17;;;;;;;19.08;86.22;98871.50;335861;28;17700;-73
2023/07/02 00:35:28;;;;;;;2.70;2.10;;;;;;;19.10;86.69;98873.03;338547;28;5132;-73
2023/07/02 00:35:40;;;;;;;2.75;2.03;;;;;;;19.13;86.48;98870.13;337946;28;5129;-73
2023/07/02 00:35:52;;;;;;;2.50;2.10;;;;;;;19.09;86.41;98867.88;336057;28;17843;-73
2023/07/02 00:36:04;;;;;;;2.25;2.05;;;;;;;19.11;86.37;98872.06;339737;28;4840;-73
2023/07/02 00:36:16;;;;;;;3.63;2.10;;;;;;;19.10;86.34;98870.41;335663;28;19395;-73
2023/07/02 00:36:29;;;;;;;4.20;2.20;;;;;;;19.06;86.15;98868.97;339667;28;4862;-73
2023/07/02 00:36:41;;;;;;;4.35;2.17;;;;;;;19.07;86.49;98870.63;336937;28;16843;-73
2023/07/02 00:36:53;;;;;;;3.35;2.03;;;;;;;19.08;86.30;98867.06;339984;28;5215;-73
2023/07/02 00:37:05;;;;;;;3.38;2.05;;;;;;;19.12;86.21;98873.75;337069;28;16266;-74
2023/07/02 00:37:17;;;;;;;2.78;2.00;;;;;;;19.12;86.13;98868.47;340083;28;4513;-73
2023/07/02 00:37:29;;;;;;;2.78;1.88;;;;;;;19.12;85.95;98865.84;340199;28;4690;-73
2023/07/02 00:37:41;;;;;;;3.78;1.95;;;;;;;19.11;85.89;98872.06;336731;28;18255;-73
2023/07/02 00:37:54;;;;;;;4.28;2.03;;;;;;;19.07;86.25;98870.63;340236;28;4665;-74
2023/07/02 00:38:06;;;;;;;3.60;2.10;;;;;;;19.09;86.08;98871.34;335783;28;18011;-73
2023/07/02 00:38:18;;;;;;;2.70;2.03;;;;;;;19.10;86.16;98870.41;338442;28;4693;-75
2023/07/02 00:38:30;;;;;;;2.10;1.83;;;;;;;19.08;86.30;98868.88;337422;28;11720;-73
2023/07/02 00:38:44;;;;;;;3.17;2.08;;;;;;;19.06;86.19;98866.34;339197;28;4764;-72
2023/07/02 00:38:57;;;;;;;3.28;2.10;;;;;;;19.12;86.16;98867.66;337043;28;18118;-74
2023/07/02 00:39:09;;;;;;;2.78;2.00;;;;;;;19.12;85.99;98865.84;340014;28;5366;-73
2023/07/02 00:39:21;;;;;;;2.90;1.90;;;;;;;19.13;85.90;98870.13;336576;28;19161;-73
2023/07/02 00:39:33;;;;;;;3.03;1.85;;;;;;;19.16;85.81;98869.91;339312;28;4729;-73
2023/07/02 00:39:45;;;;;;;3.60;2.17;;;;;;;19.17;85.61;98870.72;339512;28;5675;-73
2023/07/02 00:39:57;;;;;;;4.38;2.50;;;;;;;19.14;85.70;98871.81;337152;28;18200;-73
2023/07/02 00:40:10;;;;;;;4.32;2.55;;;;;;;19.15;85.64;98872.66;339981;28;4555;-73
2023/07/02 00:40:22;;;;;;;3.08;2.20;;;;;;;19.13;85.71;98870.13;336962;28;16441;-73
2023/07/02 00:40:33;;;;;;;3.10;2.13;;;;;;;19.13;85.93;98870.13;339463;28;4673;-73
2023/07/02 00:40:45;;;;;;;2.92;2.13;;;;;;;19.14;85.73;98866.56;336860;28;18026;-73
2023/07/02 00:40:58;;;;;;;2.78;2.10;;;;;;;19.14;85.73;98869.19;339850;28;5189;-73
2023/07/02 00:41:11;;;;;;;2.47;2.10;;;;;;;19.13;85.67;98864.03;337062;28;11927;-73
2023/07/02 00:41:23;;;;;;;2.42;2.08;;;;;;;19.13;85.63;98870.13;339391;28;4569;-72
2023/07/02 00:41:35;;;;;;;2.58;2.10;;;;;;;19.09;85.79;98863.44;336042;28;16188;-73
2023/07/02 00:41:48;;;;;;;3.00;2.25;;;;;;;19.05;85.99;98864.66;340408;28;4720;-73
2023/07/02 00:42:02;;;;;;;4.25;2.13;;;;;;;19.07;86.13;98869.81;338321;28;12105;-73
2023/07/02 00:42:16;;;;;;;4.50;2.20;;;;;;;19.07;86.32;98865.38;339463;28;4744;-74
2023/07/02 00:42:29;;;;;;;2.55;2.05;;;;;;;18.85;86.56;98865.41;337500;28;18853;-73
2023/07/02 00:42:41;;;;;;;2.55;2.05;;;;;;;18.84;87.09;98861.13;336797;28;17964;-72
2023/07/02 00:42:53;;;;;;;2.90;2.20;;;;;;;18.82;87.23;98868.31;339984;28;5567;-73
2023/07/02 00:43:05;;;;;;;3.33;2.20;;;;;;;18.86;87.33;98867.09;336328;28;16202;-74
2023/07/02 00:43:17;;;;;;;2.92;2.13;;;;;;;18.84;87.22;98864.59;339575;28;5354;-73
2023/07/02 00:43:30;;;;;;;2.85;2.10;;;;;;;18.83;87.27;98862.91;339802;28;4643;-74
2023/07/02 00:43:45;;;;;;;2.97;2.17;;;;;;;18.82;87.34;98868.31;336942;28;18030;-73
2023/07/02 00:43:57;;;;;;;3.10;2.15;;;;;;;18.87;87.37;98871.41;336805;28;18034;-73
2023/07/02 00:44:10;;;;;;;2.92;2.10;;;;;;;18.92;87.08;98866.63;339988;28;4548;-75
2023/07/02 00:44:22;;;;;;;3.15;2.25;;;;;;;18.94;86.74;98862.06;336748;28;17778;-73
2023/07/02 00:44:40;;;;;;;3.40;2.25;;;;;;;18.95;86.75;98866.34;336796;28;5085;-73
2023/07/02 00:44:52;;;;;;;3.97;2.30;;;;;;;18.95;86.75;98869.00;338036;28;17675;-73
2023/07/02 00:45:06;;;;;;;3.45;2.15;;;;;;;18.94;86.82;98864.69;337746;28;5253;-73
2023/07/02 00:45:18;;;;;;;2.85;2.10;;;;;;;18.92;86.76;98866.63;337190;28;17887;-73
2023/07/02 00:45:31;;;;;;;2.95;2.20;;;;;;;18.91;87.02;98859.66;334842;28;5389;-73
2023/07/02 00:45:45;;;;;;;2.47;2.00;;;;;;;18.94;86.86;98867.31;339303;28;18100;-73
2023/07/02 00:45:57;;;;;;;2.20;2.00;;;;;;;18.87;86.78;98858.22;336953;28;17670;-72
2023/07/02 00:46:22;;;;;;;2.28;2.00;;;;;;;18.86;87.19;98867.09;338306;28;5479;-72
2023/07/02 00:46:34;;;;;;;2.85;2.03;;;;;;;18.87;87.15;98863.50;336326;28;17309;-73
2023/07/02 00:46:47;;;;;;;2.28;1.90;;;;;;;18.85;87.28;98860.16;332043;28;18066;-73
2023/07/02 00:46:59;;;;;;;2.40;2.00;;;;;;;18.83;87.21;98868.16;340170;28;5024;-73
2023/07/02 00:47:12;;;;;;;3.25;2.20;;;;;;;18.85;87.33;98865.41;338257;28;18353;-74
2023/07/02 00:47:24;;;;;;;3.40;2.20;;;;;;;18.79;87.53;98865.88;340484;28;4785;-73
2023/07/02 00:47:36;;;;;;;3.72;2.22;;;;;;;18.80;87.60;98864.97;334991;28;17288;-74
2023/07/02 00:47:49;;;;;;;4.20;2.20;;;;;;;18.84;87.37;98866.38;339489;28;4543;-73
2023/07/02 00:48:01;;;;;;;3.50;2.30;;;;;;;18.88;87.18;98865.19;338007;28;18159;-74
2023/07/02 00:48:13;;;;;;;3.00;2.40;;;;;;;18.92;87.02;98861.34;337980;28;4672;-73
2023/07/02 00:48:25;;;;;;;2.65;2.30;;;;;;;18.94;87.05;98862.88;338359;28;5340;-73
2023/07/02 00:48:38;;;;;;;2.55;2.28;;;;;;;18.95;86.78;98861.09;337661;28;18049;-73
2023/07/02 00:48:54;;;;;;;2.35;2.15;;;;;;;18.96;86.60;98863.59;338178;28;6866;-73
2023/07/02 00:49:09;;;;;;;2.33;2.13;;;;;;;18.97;86.70;98859.16;336423;28;17923;-73
2023/07/02 00:49:22;;;;;;;2.28;2.08;;;;;;;18.96;86.65;98868.03;332137;28;17953;-73
2023/07/02 00:49:34;;;;;;;2.55;2.17;;;;;;;18.96;86.48;98862.78;339829;28;4714;-73
2023/07/02 00:49:47;;;;;;;3.42;2.25;;;;;;;18.97;86.54;98869.69;334784;28;18483;-72
2023/07/02 00:50:00;;;;;;;3.60;2.25;;;;;;;18.96;86.47;98871.50;338136;28;4711;-73
2023/07/02 00:50:12;;;;;;;3.47;2.22;;;;;;;18.94;86.62;98870.78;328644;28;18230;-74
2023/07/02 00:50:25;;;;;;;3.80;2.10;;;;;;;18.96;86.58;98862.78;340036;28;4563;-74
2023/07/02 00:50:39;;;;;;;3.88;2.03;;;;;;;19.00;86.40;98879.19;337085;28;18180;-73
2023/07/02 00:50:52;;;;;;;3.85;2.15;;;;;;;18.96;86.37;98868.88;331731;28;19024;-72
2023/07/02 00:51:04;;;;;;;3.67;2.15;;;;;;;18.98;86.33;98867.94;337342;28;4672;-73
2023/07/02 00:51:19;;;;;;;2.50;2.03;;;;;;;18.95;86.59;98869.00;336932;28;11388;-73
2023/07/02 00:51:31;;;;;;;4.82;2.10;;;;;;;18.94;86.46;98870.78;336608;28;18944;-72
2023/07/02 00:51:43;;;;;;;4.57;2.15;;;;;;;18.95;86.61;98869.00;339728;28;4722;-72
2023/07/02 00:51:55;;;;;;;4.63;2.05;;;;;;;18.89;86.64;98872.09;337218;28;11085;-72
2023/07/02 00:52:07;;;;;;;2.10;1.88;;;;;;;18.90;86.70;98871.16;339626;28;4540;-74
2023/07/02 00:52:20;;;;;;;2.40;2.10;;;;;;;18.91;86.75;98867.56;338275;28;5020;-73
2023/07/02 00:52:32;;;;;;;2.38;2.15;;;;;;;18.91;86.75;98864.91;334760;28;17843;-73
2023/07/02 00:52:44;;;;;;;2.20;2.00;;;;;;;18.76;86.79;98873.06;336847;28;5295;-72
2023/07/02 00:52:57;;;;;;;2.22;2.00;;;;;;;18.84;86.99;98874.28;334501;28;18083;-72
2023/07/02 00:53:09;;;;;;;2.42;2.08;;;;;;;18.81;87.10;98870.06;336423;28;6256;-73
2023/07/02 00:53:21;;;;;;;3.20;2.30;;;;;;;18.86;87.08;98864.47;334334;28;19262;-72
2023/07/02 00:53:33;;;;;;;3.38;2.50;;;;;;;18.86;86.88;98877.63;337200;28;5405;-72
2023/07/02 00:53:46;;;;;;;3.13;2.40;;;;;;;18.85;86.89;98873.31;335920;28;5426;-73
2023/07/02 00:53:58;;;;;;;3.03;2.33;;;;;;;18.77;87.20;98869.47;336513;28;15227;-74
2023/07/02 00:54:10;;;;;;;3.08;2.30;;;;;;;18.81;87.13;98866.63;333800;28;13223;-73
2023/07/02 00:54:22;;;;;;;4.00;2.15;;;;;;;18.71;87.51;98875.22;335498;28;4606;-72
2023/07/02 00:54:35;;;;;;;4.28;2.20;;;;;;;18.75;87.42;98873.16;336406;28;5590;-73
2023/07/02 00:54:47;;;;;;;3.83;2.30;;;;;;;18.78;87.44;98867.66;332743;29;17940;-72
2023/07/02 00:54:59;;;;;;;3.20;2.45;;;;;;;18.82;87.19;98870.94;334585;29;4664;-73
2023/07/02 00:55:11;;;;;;;3.70;2.50;;;;;;;18.81;87.34;98869.25;332965;29;17832;-72
2023/07/02 00:55:24;;;;;;;3.40;2.22;;;;;;;18.79;87.33;98866.72;335489;29;4674;-73
2023/07/02 00:55:36;;;;;;;3.63;2.20;;;;;;;18.69;87.70;98877.16;332676;28;19042;-72
2023/07/02 00:55:48;;;;;;;3.42;2.22;;;;;;;18.72;87.63;98871.63;335833;29;4577;-73
2023/07/02 00:56:00;;;;;;;4.88;2.20;;;;;;;18.75;87.69;98871.41;333325;28;5313;-73
2023/07/02 00:56:13;;;;;;;5.03;2.30;;;;;;;18.75;87.49;98871.41;336677;28;5093;-73
2023/07/02 00:56:27;;;;;;;3.53;2.30;;;;;;;18.80;87.55;98878.13;336124;28;4644;-74
2023/07/02 00:56:39;;;;;;;3.05;2.10;;;;;;;18.80;87.17;98872.84;336518;28;18014;-73
2023/07/02 00:56:51;;;;;;;3.42;2.17;;;;;;;18.86;87.09;98872.38;336051;28;15833;-74
2023/07/02 00:57:03;;;;;;;3.20;2.28;;;;;;;18.73;87.19;98867.19;339751;28;4535;-74
2023/07/02 00:57:15;;;;;;;3.03;2.30;;;;;;;18.72;87.40;98871.63;335724;28;11592;-73
2023/07/02 00:57:29;;;;;;;3.78;2.25;;;;;;;18.72;87.40;98874.25;339147;28;5061;-73
2023/07/02 00:57:46;;;;;;;4.28;2.25;;;;;;;18.74;87.48;98869.69;336148;28;17846;-72
2023/07/02 00:57:58;;;;;;;3.42;2.20;;;;;;;18.79;87.27;98871.13;337467;28;18009;-73
2023/07/02 00:58:10;;;;;;;2.83;2.08;;;;;;;18.80;87.33;98873.69;337270;28;10649;-73
2023/07/02 00:58:22;;;;;;;3.00;2.25;;;;;;;18.73;87.50;98867.19;339489;28;4673;-73
2023/07/02 00:58:38;;;;;;;3.38;2.40;;;;;;;18.71;87.72;98869.97;339182;28;5453;-72
2023/07/02 00:58:53;;;;;;;3.28;2.50;;;;;;;18.73;87.80;98868.03;337531;28;17795;-73
2023/07/02 00:59:06;;;;;;;2.40;2.20;;;;;;;18.73;87.61;98875.09;339932;28;4677;-73
2023/07/02 00:59:18;;;;;;;2.28;1.90;;;;;;;18.81;87.47;98874.50;336840;28;18620;-75
2023/07/02 00:59:37;;;;;;;4.13;2.08;;;;;;;18.84;87.33;98863.75;336811;28;5334;-73
2023/07/02 00:59:51;;;;;;;4.85;2.10;;;;;;;18.85;86.96;98868.03;335441;28;17979;-74
2023/07/02 01:00:06;;;;;;;2.95;2.22;;;;;;;18.82;87.20;98865.66;338581;28;17737;-73
2023/07/02 01:00:18;;;;;;;3.42;2.30;;;;;;;18.85;86.94;98870.69;337029;28;18883;-75
2023/07/02 01:00:31;;;;;;;3.95;2.28;;;;;;;18.85;86.98;98870.69;335401;28;6118;-73
2023/07/02 01:00:43;;;;;;;3.88;2.30;;;;;;;18.81;87.11;98863.97;340469;28;4722;-73
2023/07/02 01:00:56;;;;;;;3.30;2.40;;;;;;;18.82;87.17;98865.66;339066;28;6705;-72